Terminal Aerodrome Forecast
Issued by NWS

Home | Current Version | Previous Version | Text Only | Print | Product List | Glossary On
Versions: 1 2 3 4 5 6 7 8 9 10 11 12 13
000
FTUS43 KMPX 012300
TAFRNH
TAF
KRNH 012339Z 0200/0224 31005KT P6SM SCT050
     FM020200 00000KT P6SM SKC
     FM021000 00000KT 3SM BR SKC
     FM021300 VRB02KT P6SM SKC
     FM021500 20005KT P6SM SCT050 SCT150=

USA.gov is the U.S. government's official web portal to all federal, state and local government web resources and services.